createdAt,value
2023-04-11T00:01:01.196Z,91.00
2023-04-11T00:03:31.366Z,90.90
2023-04-11T00:05:59.587Z,90.80
2023-04-11T00:08:27.907Z,90.60
2023-04-11T00:10:56.006Z,90.50
2023-04-11T00:13:26.602Z,90.40
2023-04-11T00:15:55.727Z,90.40
2023-04-11T00:18:25.890Z,90.20
2023-04-11T00:20:55.336Z,90.10
2023-04-11T00:23:23.867Z,90.10
2023-04-11T00:25:51.942Z,90.30
2023-04-11T00:28:20.009Z,90.10
2023-04-11T00:30:48.225Z,90.20
2023-04-11T00:33:16.682Z,90.10
2023-04-11T00:35:45.049Z,89.70
2023-04-11T00:38:15.755Z,89.30
2023-04-11T00:40:44.346Z,89.20
2023-04-11T00:43:12.547Z,89.20
2023-04-11T00:45:40.704Z,89.30
2023-04-11T00:48:08.976Z,89.50
2023-04-11T00:50:41.061Z,89.70
2023-04-11T00:53:10.038Z,90.00
2023-04-11T00:55:39.456Z,89.90
2023-04-11T00:58:08.216Z,89.80
2023-04-11T01:00:41.146Z,89.60
2023-04-11T01:03:11.935Z,90.30
2023-04-11T01:05:40.394Z,90.20
2023-04-11T01:08:09.186Z,90.60
2023-04-11T01:10:37.570Z,89.70
2023-04-11T01:13:07.365Z,89.00
2023-04-11T01:15:35.456Z,89.80
2023-04-11T01:18:04.013Z,90.80
2023-04-11T01:20:33.940Z,91.30
2023-04-11T01:23:02.968Z,90.10
2023-04-11T01:25:32.512Z,89.60
2023-04-11T01:28:00.947Z,88.00
2023-04-11T01:30:29.238Z,87.70
2023-04-11T01:32:57.348Z,87.70
2023-04-11T01:35:25.580Z,87.90
2023-04-11T01:37:53.615Z,88.30
2023-04-11T01:40:23.751Z,88.70
2023-04-11T01:42:54.588Z,89.30
2023-04-11T01:45:23.134Z,89.60
2023-04-11T01:47:51.929Z,90.10
2023-04-11T01:50:20.050Z,90.50
2023-04-11T01:52:48.827Z,90.80
2023-04-11T01:55:16.954Z,91.00
2023-04-11T01:57:45.194Z,92.00
2023-04-11T02:00:15.271Z,90.90
2023-04-11T02:02:43.970Z,90.80
2023-04-11T02:05:12.464Z,90.70
2023-04-11T02:07:41.119Z,90.90
2023-04-11T02:10:09.799Z,91.00
2023-04-11T02:12:37.839Z,90.80
2023-04-11T02:15:08.748Z,90.70
2023-04-11T02:17:45.068Z,90.50
2023-04-11T02:20:13.930Z,90.20
2023-04-11T02:22:42.143Z,89.00
2023-04-11T02:25:10.460Z,87.70
2023-04-11T02:27:38.591Z,87.20
2023-04-11T02:30:07.352Z,86.30
2023-04-11T02:32:35.833Z,85.40
2023-04-11T02:35:07.634Z,84.90
2023-04-11T02:37:35.818Z,86.30
2023-04-11T02:40:05.454Z,84.10
2023-04-11T02:42:33.680Z,83.60
2023-04-11T02:45:01.657Z,83.50
2023-04-11T02:47:30.553Z,83.10
2023-04-11T02:50:05.372Z,82.70
2023-04-11T02:52:39.315Z,82.80
2023-04-11T02:55:07.600Z,84.10
2023-04-11T02:57:36.235Z,82.70
2023-04-11T03:00:07.019Z,82.30
2023-04-11T03:02:44.412Z,81.60
2023-04-11T03:05:14.402Z,81.30
2023-04-11T03:07:46.921Z,80.70
2023-04-11T03:10:15.091Z,79.90
2023-04-11T03:12:44.393Z,80.30
2023-04-11T03:15:15.497Z,79.90
2023-04-11T03:17:43.818Z,80.20
2023-04-11T03:20:19.592Z,80.50
2023-04-11T03:22:50.784Z,79.40
2023-04-11T03:25:20.493Z,79.00
2023-04-11T03:27:50.899Z,79.10
2023-04-11T03:30:19.096Z,78.10
2023-04-11T03:32:49.160Z,79.90
2023-04-11T03:35:20.520Z,77.30
2023-04-11T03:37:51.493Z,76.70
2023-04-11T03:40:19.554Z,76.30
2023-04-11T03:42:54.009Z,76.90
2023-04-11T03:45:26.770Z,76.90
2023-04-11T03:47:56.597Z,77.30
2023-04-11T03:50:31.695Z,76.00
2023-04-11T03:53:03.124Z,74.50
2023-04-11T03:55:32.018Z,74.30
2023-04-11T03:58:01.329Z,73.60
2023-04-11T04:00:31.343Z,73.20
2023-04-11T04:03:06.953Z,73.60
2023-04-11T04:05:38.970Z,73.60
2023-04-11T04:08:07.131Z,74.30
2023-04-11T04:10:54.257Z,74.60
2023-04-11T04:13:22.266Z,74.70
2023-04-11T04:16:01.201Z,74.70
2023-04-11T04:18:31.027Z,74.80
2023-04-11T04:21:00.654Z,74.70
2023-04-11T04:23:29.984Z,76.40
2023-04-11T04:26:25.353Z,76.40
2023-04-11T04:29:10.163Z,75.20
2023-04-11T04:31:53.245Z,76.60
2023-04-11T04:34:29.396Z,76.40
2023-04-11T04:37:02.054Z,76.10
2023-04-11T04:39:41.971Z,77.50
2023-04-11T04:42:12.649Z,77.10
2023-04-11T04:44:42.103Z,78.20
2023-04-11T04:47:18.550Z,79.80
2023-04-11T04:49:47.022Z,80.80
2023-04-11T04:52:18.848Z,80.60
2023-04-11T04:54:48.234Z,81.20
2023-04-11T04:57:16.688Z,81.90
2023-04-11T04:59:45.571Z,82.60
2023-04-11T05:02:17.399Z,83.10
2023-04-11T05:04:46.743Z,83.70
2023-04-11T05:07:16.033Z,83.10
2023-04-11T05:09:47.776Z,82.90
2023-04-11T05:12:27.260Z,83.60
2023-04-11T05:15:00.455Z,83.90
2023-04-11T05:17:31.152Z,85.10
2023-04-11T05:19:59.973Z,86.70
2023-04-11T05:22:29.120Z,89.60
2023-04-11T05:24:59.378Z,91.20
2023-04-11T05:27:28.105Z,92.30
2023-04-11T05:29:56.670Z,93.40
2023-04-11T05:32:25.281Z,94.90
2023-04-11T05:34:57.477Z,95.50
2023-04-11T05:37:50.584Z,96.00
2023-04-11T05:40:21.092Z,96.70
2023-04-11T05:42:50.209Z,97.00
2023-04-11T05:45:20.090Z,97.10
2023-04-11T05:47:48.340Z,96.60
2023-04-11T05:50:16.994Z,96.70
2023-04-11T05:52:45.268Z,96.80
2023-04-11T05:55:14.334Z,97.20
2023-04-11T05:57:43.784Z,98.60
2023-04-11T06:00:18.090Z,99.90
2023-04-11T06:02:46.294Z,99.90
2023-04-11T06:05:16.837Z,99.90
2023-04-11T06:07:45.295Z,99.90
2023-04-11T06:10:13.451Z,99.90
2023-04-11T06:12:42.595Z,99.90
2023-04-11T06:15:13.836Z,99.90
2023-04-11T06:17:42.150Z,99.90
2023-04-11T06:20:11.238Z,99.90
2023-04-11T06:22:40.459Z,99.90
2023-04-11T06:25:09.020Z,99.90
2023-04-11T06:27:37.906Z,99.90
2023-04-11T06:30:06.708Z,99.90
2023-04-11T06:32:36.744Z,99.90
2023-04-11T06:35:05.046Z,99.90
2023-04-11T06:37:33.449Z,99.90
2023-04-11T06:40:01.511Z,99.90
2023-04-11T06:42:31.076Z,99.90
2023-04-11T06:44:59.976Z,99.90
2023-04-11T06:47:28.296Z,99.90
2023-04-11T06:49:58.073Z,99.90
2023-04-11T06:52:28.174Z,99.90
2023-04-11T06:54:56.835Z,99.90
2023-04-11T06:57:24.859Z,99.90
2023-04-11T06:59:56.263Z,99.90
2023-04-11T07:02:25.743Z,99.90
2023-04-11T07:04:54.556Z,99.90
2023-04-11T07:07:23.996Z,99.90
2023-04-11T07:09:54.573Z,99.90
2023-04-11T07:12:22.605Z,99.90
2023-04-11T07:14:51.021Z,99.90
2023-04-11T07:17:19.016Z,99.90
2023-04-11T07:19:47.581Z,99.90
2023-04-11T07:22:15.860Z,99.90
2023-04-11T07:24:46.721Z,99.90
2023-04-11T07:27:15.711Z,99.90
2023-04-11T07:29:44.010Z,99.90
2023-04-11T07:32:12.369Z,99.90
2023-04-11T07:34:40.554Z,99.90
2023-04-11T07:37:09.650Z,99.90
2023-04-11T07:39:37.696Z,99.90
2023-04-11T07:42:07.858Z,99.90
2023-04-11T07:44:36.544Z,99.90
2023-04-11T07:47:08.877Z,99.90
2023-04-11T07:49:37.193Z,99.90
2023-04-11T07:52:05.706Z,99.90
2023-04-11T07:54:34.009Z,99.90
2023-04-11T07:57:02.363Z,99.90
2023-04-11T07:59:32.208Z,99.90
2023-04-11T08:02:01.248Z,99.90
2023-04-11T08:04:32.656Z,99.90
2023-04-11T08:07:01.062Z,99.90
2023-04-11T08:09:29.348Z,99.90
2023-04-11T08:11:58.392Z,99.90
2023-04-11T08:14:26.731Z,99.90
2023-04-11T08:16:56.714Z,99.90
2023-04-11T08:19:26.524Z,99.90
2023-04-11T08:21:54.553Z,99.90
2023-04-11T08:24:25.341Z,99.90
2023-04-11T08:26:53.394Z,99.90
2023-04-11T08:29:21.923Z,99.90
2023-04-11T08:31:49.978Z,99.90
2023-04-11T08:34:19.574Z,99.90
2023-04-11T08:36:47.627Z,99.90
2023-04-11T08:39:16.138Z,99.90
2023-04-11T08:41:44.409Z,99.90
2023-04-11T08:44:13.016Z,99.90
2023-04-11T08:46:42.800Z,99.90
2023-04-11T08:49:11.373Z,99.90
2023-04-11T08:51:43.426Z,99.90
2023-04-11T08:54:11.558Z,99.90
2023-04-11T08:56:42.597Z,99.90
2023-04-11T08:59:10.769Z,99.90
2023-04-11T09:01:41.189Z,99.90
2023-04-11T09:04:10.582Z,99.90
2023-04-11T09:06:40.243Z,99.90
2023-04-11T09:09:28.676Z,99.90
2023-04-11T09:11:57.146Z,99.90
2023-04-11T09:14:25.934Z,99.90
2023-04-11T09:16:55.505Z,99.90
2023-04-11T09:19:24.915Z,99.90
2023-04-11T09:21:54.388Z,99.90
2023-04-11T09:24:25.604Z,99.90
2023-04-11T09:27:07.799Z,99.90
2023-04-11T09:29:37.296Z,99.90
2023-04-11T09:32:05.872Z,99.90
2023-04-11T09:34:34.841Z,99.90
2023-04-11T09:37:03.836Z,99.90
2023-04-11T09:39:33.302Z,99.90
2023-04-11T09:42:04.319Z,99.90
2023-04-11T09:44:35.799Z,99.90
2023-04-11T09:47:04.128Z,99.90
2023-04-11T09:49:34.112Z,99.90
2023-04-11T09:52:03.379Z,99.90
2023-04-11T09:54:32.986Z,99.90
2023-04-11T09:57:01.638Z,99.90
2023-04-11T09:59:30.566Z,99.90
2023-04-11T10:01:59.485Z,99.90
2023-04-11T10:04:27.927Z,99.90
2023-04-11T10:07:04.556Z,99.90
2023-04-11T10:09:34.136Z,99.90
2023-04-11T10:12:03.053Z,99.90
2023-04-11T10:14:43.678Z,99.90
2023-04-11T10:17:12.894Z,99.90
2023-04-11T10:19:42.829Z,99.90
2023-04-11T10:22:11.199Z,99.90
2023-04-11T10:24:40.981Z,99.90
2023-04-11T10:27:09.010Z,99.90
2023-04-11T10:29:48.372Z,99.90
2023-04-11T10:32:20.149Z,99.90
2023-04-11T10:35:07.066Z,99.90
2023-04-11T10:37:36.041Z,99.90
2023-04-11T10:40:09.824Z,99.90
2023-04-11T10:42:39.184Z,99.90
2023-04-11T10:45:17.869Z,99.90
2023-04-11T10:48:00.969Z,99.90
2023-04-11T10:50:41.164Z,99.90
2023-04-11T10:53:11.129Z,99.90
2023-04-11T10:55:48.778Z,99.90
2023-04-11T10:58:19.499Z,99.90
2023-04-11T11:01:26.173Z,99.90
2023-04-11T11:04:05.222Z,99.90
2023-04-11T11:06:46.076Z,99.90
2023-04-11T11:09:23.099Z,99.90
2023-04-11T11:14:46.826Z,99.90
2023-04-11T11:17:15.995Z,99.90
2023-04-11T11:19:44.855Z,99.90
2023-04-11T11:22:15.970Z,99.90
2023-04-11T11:24:44.105Z,99.90
2023-04-11T11:27:20.196Z,99.90
2023-04-11T11:29:49.721Z,99.90
2023-04-11T11:32:22.645Z,99.90
2023-04-11T11:34:52.764Z,99.90
2023-04-11T11:37:21.661Z,99.90
2023-04-11T11:39:50.446Z,99.90
2023-04-11T11:42:19.891Z,99.90
2023-04-11T11:44:50.245Z,99.90
2023-04-11T11:47:19.842Z,99.90
2023-04-11T11:49:48.550Z,99.90
2023-04-11T11:52:32.106Z,99.90
2023-04-11T11:55:00.889Z,99.90
2023-04-11T11:57:28.976Z,99.90
2023-04-11T11:59:59.357Z,99.90
2023-04-11T12:02:27.906Z,99.90
2023-04-11T12:05:00.248Z,99.90
2023-04-11T12:07:32.753Z,97.80
2023-04-11T12:10:01.695Z,98.00
2023-04-11T12:12:35.093Z,96.70
2023-04-11T12:15:12.837Z,96.60
2023-04-11T12:17:41.407Z,96.70
2023-04-11T12:20:10.745Z,97.20
2023-04-11T12:22:54.632Z,97.20
2023-04-11T12:25:25.663Z,96.40
2023-04-11T12:27:53.955Z,96.80
2023-04-11T12:30:24.354Z,95.90
2023-04-11T12:32:53.064Z,95.00
2023-04-11T12:35:49.568Z,94.70
2023-04-11T12:38:21.120Z,93.90
2023-04-11T12:41:00.400Z,94.40
2023-04-11T12:43:39.807Z,94.60
2023-04-11T12:46:09.506Z,93.20
2023-04-11T12:48:37.607Z,94.40
2023-04-11T12:51:05.879Z,95.10
2023-04-11T12:53:33.932Z,94.20
2023-04-11T12:56:02.183Z,94.40
2023-04-11T12:58:30.266Z,94.70
2023-04-11T13:00:59.494Z,93.00
2023-04-11T13:03:29.383Z,93.20
2023-04-11T13:05:57.910Z,92.40
2023-04-11T13:08:27.149Z,92.70
2023-04-11T13:10:55.973Z,92.70
2023-04-11T13:13:24.082Z,93.10
2023-04-11T13:15:52.369Z,93.50
2023-04-11T13:18:20.610Z,92.80
2023-04-11T13:20:50.048Z,94.00
2023-04-11T13:23:18.312Z,93.00
2023-04-11T13:25:46.382Z,93.60
2023-04-11T13:28:14.425Z,92.20
2023-04-11T13:30:42.953Z,91.90
2023-04-11T13:33:11.175Z,91.00
2023-04-11T13:35:39.683Z,92.20
2023-04-11T13:38:12.888Z,91.50
2023-04-11T13:40:44.779Z,91.60
2023-04-11T13:43:12.886Z,91.70
2023-04-11T13:45:41.239Z,92.70
2023-04-11T13:48:09.708Z,92.60
2023-04-11T13:50:38.712Z,93.20
2023-04-11T13:53:07.446Z,92.60
2023-04-11T13:55:36.817Z,92.30
2023-04-11T13:58:07.013Z,92.80
2023-04-11T14:00:36.018Z,92.80
2023-04-11T14:03:05.201Z,93.00
2023-04-11T14:05:35.663Z,93.30
2023-04-11T14:08:04.532Z,91.20
2023-04-11T14:10:35.229Z,90.80
2023-04-11T14:13:05.710Z,90.80
2023-04-11T14:15:33.850Z,90.90
2023-04-11T14:18:02.084Z,90.70
2023-04-11T14:20:30.933Z,90.80
2023-04-11T14:22:59.044Z,90.20
2023-04-11T14:25:28.828Z,89.80
2023-04-11T14:27:56.932Z,87.10
2023-04-11T14:30:27.052Z,87.60
2023-04-11T14:32:55.459Z,87.10
2023-04-11T14:35:24.574Z,86.80
2023-04-11T14:37:52.629Z,93.00
2023-04-11T14:40:20.986Z,95.80
2023-04-11T14:42:49.019Z,96.20
2023-04-11T14:45:17.075Z,97.10
2023-04-11T14:47:46.750Z,97.80
2023-04-11T14:50:16.304Z,98.10
2023-04-11T14:52:44.384Z,98.50
2023-04-11T14:55:12.843Z,98.80
2023-04-11T14:57:47.541Z,99.60
2023-04-11T15:00:20.332Z,99.90
2023-04-11T15:02:50.586Z,99.90
2023-04-11T15:05:20.027Z,99.90
2023-04-11T15:07:48.881Z,99.90
2023-04-11T15:10:18.193Z,99.90
2023-04-11T15:12:46.861Z,99.90
2023-04-11T15:15:14.938Z,99.90
2023-04-11T15:17:44.212Z,99.90
2023-04-11T15:20:16.626Z,99.90
2023-04-11T15:22:46.698Z,99.90
2023-04-11T15:25:15.489Z,95.50
2023-04-11T15:27:44.254Z,91.00
2023-04-11T15:30:12.586Z,91.20
2023-04-11T15:32:42.899Z,87.30
2023-04-11T15:35:11.274Z,91.70
2023-04-11T15:37:41.278Z,93.90
2023-04-11T15:40:12.380Z,92.40
2023-04-11T15:42:40.754Z,90.40
2023-04-11T15:45:09.460Z,89.00
2023-04-11T15:47:37.682Z,87.70
2023-04-11T15:50:06.669Z,88.40
2023-04-11T15:52:34.804Z,94.00
2023-04-11T15:55:04.734Z,96.10
2023-04-11T15:57:32.953Z,97.10
2023-04-11T16:00:01.519Z,98.60
2023-04-11T16:02:44.561Z,98.90
2023-04-11T16:05:13.244Z,99.10
2023-04-11T16:07:42.489Z,99.20
2023-04-11T16:10:12.544Z,99.80
2023-04-11T16:12:40.753Z,99.90
2023-04-11T16:15:09.826Z,99.90
2023-04-11T16:17:38.004Z,99.90
2023-04-11T16:20:09.643Z,99.90
2023-04-11T16:22:39.890Z,99.90
2023-04-11T16:25:08.650Z,99.90
2023-04-11T16:27:38.170Z,99.90
2023-04-11T16:30:08.787Z,99.90
2023-04-11T16:32:36.901Z,99.90
2023-04-11T16:35:05.694Z,99.90
2023-04-11T16:37:34.324Z,99.90
2023-04-11T16:40:06.696Z,99.90
2023-04-11T16:42:35.236Z,99.90
2023-04-11T16:45:06.845Z,99.90
2023-04-11T16:47:35.672Z,99.90
2023-04-11T16:50:03.823Z,99.90
2023-04-11T16:52:33.948Z,99.90
2023-04-11T16:55:03.297Z,99.90
2023-04-11T16:57:34.036Z,99.90
2023-04-11T17:00:13.297Z,99.90
2023-04-11T17:02:43.663Z,99.90
2023-04-11T17:05:12.579Z,99.90
2023-04-11T17:07:42.047Z,99.90
2023-04-11T17:10:10.755Z,99.90
2023-04-11T17:12:40.690Z,99.90
2023-04-11T17:15:09.343Z,99.90
2023-04-11T17:17:37.862Z,99.90
2023-04-11T17:20:09.903Z,99.90
2023-04-11T17:22:41.266Z,99.90
2023-04-11T17:25:10.693Z,99.90
2023-04-11T17:27:38.964Z,99.90
2023-04-11T17:30:08.502Z,99.90
2023-04-11T17:32:38.932Z,99.90
2023-04-11T17:35:08.866Z,99.90
2023-04-11T17:37:36.956Z,99.90
2023-04-11T17:40:11.502Z,99.90
2023-04-11T17:42:42.193Z,99.90
2023-04-11T17:45:17.699Z,99.90
2023-04-11T17:47:47.308Z,99.90
2023-04-11T17:50:23.608Z,99.90
2023-04-11T17:52:52.482Z,99.90
2023-04-11T17:55:21.028Z,99.90
2023-04-11T17:57:53.880Z,99.90
2023-04-11T18:00:23.158Z,99.90
2023-04-11T18:02:52.447Z,99.90
2023-04-11T18:05:30.192Z,99.90
2023-04-11T18:07:59.731Z,99.90
2023-04-11T18:10:34.732Z,99.90
2023-04-11T18:13:03.187Z,99.90
2023-04-11T18:15:34.929Z,99.90
2023-04-11T18:18:05.246Z,99.90
2023-04-11T18:20:35.381Z,99.90
2023-04-11T18:23:04.027Z,99.90
2023-04-11T18:25:38.434Z,99.90
2023-04-11T18:28:06.922Z,99.90
2023-04-11T18:30:35.218Z,99.90
2023-04-11T18:33:04.556Z,99.90
2023-04-11T18:35:32.902Z,99.90
2023-04-11T18:38:06.488Z,99.90
2023-04-11T18:40:36.117Z,99.90
2023-04-11T18:43:04.617Z,99.90
2023-04-11T18:45:33.386Z,99.90
2023-04-11T18:48:04.727Z,99.90
2023-04-11T18:50:38.689Z,99.90
2023-04-11T18:53:11.896Z,99.90
2023-04-11T18:55:43.035Z,99.90
2023-04-11T18:58:14.575Z,99.90
2023-04-11T19:00:43.712Z,99.90
2023-04-11T19:03:14.808Z,99.90
2023-04-11T19:05:43.999Z,99.90
2023-04-11T19:08:16.878Z,99.90
2023-04-11T19:10:49.050Z,99.90
2023-04-11T19:13:20.600Z,99.90
2023-04-11T19:15:49.473Z,99.90
2023-04-11T19:18:28.994Z,99.90
2023-04-11T19:20:57.822Z,99.90
2023-04-11T19:23:28.749Z,99.90
2023-04-11T19:26:00.713Z,99.90
2023-04-11T19:28:33.573Z,99.90
2023-04-11T19:31:02.608Z,99.90
2023-04-11T19:33:30.954Z,99.90
2023-04-11T19:35:59.442Z,99.90
2023-04-11T19:38:32.768Z,99.90
2023-04-11T19:41:10.926Z,99.90
2023-04-11T19:43:42.943Z,99.90
2023-04-11T19:46:15.106Z,99.90
2023-04-11T19:51:34.035Z,99.90
2023-04-11T19:54:09.586Z,99.90
2023-04-11T19:56:39.260Z,99.90
2023-04-11T19:59:10.708Z,99.90
2023-04-11T20:01:41.260Z,99.90
2023-04-11T20:04:13.540Z,99.90
2023-04-11T20:06:44.001Z,99.90
2023-04-11T20:09:14.363Z,99.90
2023-04-11T20:11:44.001Z,99.90
2023-04-11T20:14:12.907Z,99.90
2023-04-11T20:19:58.856Z,99.90
2023-04-11T20:22:31.323Z,99.90
2023-04-11T20:25:02.732Z,99.90
2023-04-11T20:27:31.103Z,99.90
2023-04-11T20:30:00.576Z,99.90
2023-04-11T20:32:32.251Z,99.90
2023-04-11T20:35:01.966Z,99.90
2023-04-11T20:37:36.245Z,99.90
2023-04-11T20:40:11.300Z,99.90
2023-04-11T20:42:42.803Z,99.90
2023-04-11T20:45:12.159Z,99.90
2023-04-11T20:47:41.361Z,99.90
2023-04-11T20:50:10.602Z,99.90
2023-04-11T20:52:41.147Z,99.90
2023-04-11T20:55:12.953Z,99.90
2023-04-11T20:57:45.496Z,99.90
2023-04-11T21:00:14.709Z,99.90
2023-04-11T21:02:46.170Z,99.90
2023-04-11T21:05:20.723Z,99.90
2023-04-11T21:07:50.272Z,99.90
2023-04-11T21:10:20.848Z,99.90
2023-04-11T21:12:51.554Z,99.90
2023-04-11T21:15:20.501Z,99.90
2023-04-11T21:17:48.660Z,99.90
2023-04-11T21:20:21.175Z,99.90
2023-04-11T21:22:52.777Z,99.90
2023-04-11T21:25:22.515Z,99.90
2023-04-11T21:27:50.806Z,99.90
2023-04-11T21:30:19.885Z,99.90
2023-04-11T21:32:48.907Z,99.90
2023-04-11T21:35:18.228Z,99.90
2023-04-11T21:37:48.959Z,99.90
2023-04-11T21:40:17.665Z,99.90
2023-04-11T21:42:47.083Z,99.90
2023-04-11T21:45:15.899Z,99.90
2023-04-11T21:47:43.934Z,99.90
2023-04-11T21:50:12.620Z,99.90
2023-04-11T21:52:40.730Z,99.90
2023-04-11T21:55:09.296Z,99.90
2023-04-11T21:57:37.422Z,99.90
2023-04-11T22:02:57.613Z,99.90
2023-04-11T22:05:27.315Z,99.90
2023-04-11T22:08:10.781Z,99.90
2023-04-11T22:10:47.390Z,99.90
2023-04-11T22:13:17.020Z,99.90
2023-04-11T22:15:48.730Z,99.90
2023-04-11T22:18:16.853Z,99.90
2023-04-11T22:20:45.246Z,99.90
2023-04-11T22:23:13.880Z,99.90
2023-04-11T22:25:43.125Z,99.90
2023-04-11T22:28:13.838Z,99.90
2023-04-11T22:30:43.970Z,99.90
2023-04-11T22:33:13.933Z,99.90
2023-04-11T22:35:44.468Z,99.90
2023-04-11T22:38:12.731Z,99.90
2023-04-11T22:40:41.189Z,99.90
2023-04-11T22:43:09.735Z,99.90
2023-04-11T22:45:37.958Z,99.90
2023-04-11T22:48:07.143Z,99.90
2023-04-11T22:50:37.153Z,99.90
2023-04-11T22:53:05.564Z,99.90
2023-04-11T22:55:34.988Z,99.90
2023-04-11T22:58:03.776Z,99.90
2023-04-11T23:00:38.008Z,99.90
2023-04-11T23:03:07.286Z,99.90
2023-04-11T23:05:39.481Z,99.90
2023-04-11T23:08:08.065Z,99.90
2023-04-11T23:10:36.290Z,99.90
2023-04-11T23:13:04.831Z,99.90
2023-04-11T23:15:33.625Z,99.90
2023-04-11T23:18:03.411Z,99.90
2023-04-11T23:20:31.985Z,99.90
2023-04-11T23:23:01.891Z,99.90
2023-04-11T23:25:31.817Z,99.90
2023-04-11T23:28:01.035Z,99.90
2023-04-11T23:30:30.075Z,99.90
2023-04-11T23:32:59.798Z,99.90
2023-04-11T23:35:29.084Z,99.90
2023-04-11T23:37:58.272Z,99.90
2023-04-11T23:40:29.976Z,99.90
2023-04-11T23:42:58.805Z,99.90
2023-04-11T23:45:33.946Z,99.90
2023-04-11T23:48:02.917Z,99.90
2023-04-11T23:50:31.871Z,99.90
2023-04-11T23:53:02.944Z,99.90
2023-04-11T23:55:33.885Z,99.90
2023-04-11T23:58:02.564Z,99.90
